Time;durP1;ratioP1;P1;durP2;ratioP2;P2;SDS_P1;SDS_P2;PMS_P1;PMS_P2;Temp;Humidity;BMP_temperature;BMP_pressure;BME280_temperature;BME280_humidity;BME280_pressure;Samples;Min_cycle;Max_cycle;Signal;HPM_P1;HPM_P2
2022/11/06 00:00:21;;;;;;;;;;;;;;;8.33;68.93;95800.72;5028224;28;20068;-67
2022/11/06 00:02:47;;;;;;;;;;;;;;;8.34;68.73;95804.97;5029788;28;20467;-66
2022/11/06 00:07:56;;;;;;;;;;;;;;;8.30;68.55;95799.44;5031226;28;20101;-66
2022/11/06 00:10:21;;;;;;;;;;;;;;;8.28;68.62;95796.25;5029249;28;20104;-66
2022/11/06 00:12:47;;;;;;;;;;;;;;;8.27;68.42;95797.31;5028698;28;20014;-66
2022/11/06 00:15:12;;;;;;;;;;;;;;;8.26;68.48;95798.38;5028680;28;20762;-66
2022/11/06 00:17:38;;;;;;;;;;;;;;;8.26;68.64;95800.25;5030990;28;20006;-66
2022/11/06 00:20:05;;;;;;;;;;;;;;;8.27;68.63;95807.13;5028374;28;20495;-66
2022/11/06 00:22:33;;;;;;;;;;;;;;;8.28;68.36;95800.75;5028480;28;20360;-66
2022/11/06 00:24:59;;;;;;;;;;;;;;;8.27;68.58;95805.25;5028316;28;20021;-66
2022/11/06 00:27:24;;;;;;;;;;;;;;;8.31;68.56;95795.72;5030089;28;20014;-66
2022/11/06 00:29:49;;;;;;;;;;;;;;;8.33;68.67;95784.81;5030244;28;20064;-66
2022/11/06 00:32:14;;;;;;;;;;;;;;;8.32;68.54;95785.91;5029953;28;20024;-66
2022/11/06 00:34:39;;;;;;;;;;;;;;;8.30;68.39;95780.09;5027119;28;20513;-66
2022/11/06 00:37:04;;;;;;;;;;;;;;;8.23;68.23;95782.22;5025972;28;20060;-66
2022/11/06 00:39:30;;;;;;;;;;;;;;;8.27;68.58;95768.16;5029174;28;20006;-66
2022/11/06 00:41:55;;;;;;;;;;;;;;;8.28;68.66;95780.34;5028368;28;20060;-66
2022/11/06 00:44:20;;;;;;;;;;;;;;;8.30;69.01;95783.53;5028499;28;20010;-66
2022/11/06 00:46:45;;;;;;;;;;;;;;;8.31;68.40;95784.31;5027034;28;20063;-66
2022/11/06 00:49:11;;;;;;;;;;;;;;;8.28;68.50;95783.00;5029602;28;20010;-65
2022/11/06 00:51:38;;;;;;;;;;;;;;;8.25;68.46;95788.84;5029514;28;20014;-66
2022/11/06 00:54:04;;;;;;;;;;;;;;;8.23;68.41;95776.91;5028414;28;20036;-66
2022/11/06 00:56:30;;;;;;;;;;;;;;;8.20;68.46;95778.28;5028319;28;20113;-66
2022/11/06 00:58:57;;;;;;;;;;;;;;;8.19;68.64;95787.31;5029088;28;20136;-66
2022/11/06 01:01:24;;;;;;;;;;;;;;;8.11;68.87;95784.41;5029394;28;20411;-66
2022/11/06 01:03:53;;;;;;;;;;;;;;;8.22;69.85;95784.09;5028558;28;20100;-66
2022/11/06 01:06:20;;;;;;;;;;;;;;;8.45;69.40;95784.53;5028432;28;20014;-66
2022/11/06 01:08:45;;;;;;;;;;;;;;;8.50;68.98;95782.66;5028143;28;20010;-66
2022/11/06 01:11:12;;;;;;;;;;;;;;;8.49;68.73;95780.25;5030066;28;20385;-65
2022/11/06 01:13:38;;;;;;;;;;;;;;;8.43;68.47;95782.16;5027331;28;20020;-66
2022/11/06 01:16:05;;;;;;;;;;;;;;;8.39;68.36;95775.81;5027631;28;20104;-66
2022/11/06 01:18:30;;;;;;;;;;;;;;;8.33;68.01;95775.00;5028698;28;20109;-67
2022/11/06 01:20:55;;;;;;;;;;;;;;;8.29;67.84;95768.69;5029155;28;20522;-66
2022/11/06 01:23:20;;;;;;;;;;;;;;;8.24;68.58;95762.59;5024654;28;20021;-66
2022/11/06 01:25:55;;;;;;;;;;;;;;;8.18;67.96;95764.50;5009695;28;20013;-66
2022/11/06 01:28:20;;;;;;;;;;;;;;;8.15;67.91;95765.06;5027824;28;20493;-66
2022/11/06 01:30:45;;;;;;;;;;;;;;;8.06;68.15;95766.69;5025165;28;20018;-66
2022/11/06 01:33:10;;;;;;;;;;;;;;;7.95;69.86;95762.50;5033647;28;20834;-66
2022/11/06 01:35:42;;;;;;;;;;;;;;;8.05;68.54;95762.44;5034849;28;20020;-66
2022/11/06 01:38:07;;;;;;;;;;;;;;;8.01;68.44;95756.88;5036373;28;20382;-66
2022/11/06 01:40:38;;;;;;;;;;;;;;;7.97;68.42;95747.09;5034013;28;20014;-66
2022/11/06 01:43:04;;;;;;;;;;;;;;;7.92;68.16;95747.91;5034683;28;20009;-66
2022/11/06 01:45:32;;;;;;;;;;;;;;;7.89;68.10;95737.09;5033638;28;20461;-65
2022/11/06 01:47:58;;;;;;;;;;;;;;;7.82;68.15;95735.50;5035048;28;20010;-66
2022/11/06 01:50:24;;;;;;;;;;;;;;;7.76;68.09;95731.31;5035423;28;20023;-66
2022/11/06 01:52:49;;;;;;;;;;;;;;;7.71;67.74;95736.63;5034868;28;20024;-66
2022/11/06 01:55:19;;;;;;;;;;;;;;;7.66;67.87;95734.00;5032999;28;20104;-65
2022/11/06 01:57:45;;;;;;;;;;;;;;;7.64;68.24;95738.78;5020844;28;20020;-66
2022/11/06 02:00:11;;;;;;;;;;;;;;;7.61;67.98;95735.88;5034143;28;20382;-66
2022/11/06 02:02:37;;;;;;;;;;;;;;;7.57;67.83;95735.59;5033589;28;20148;-66
2022/11/06 02:05:02;;;;;;;;;;;;;;;7.52;67.79;95740.91;5035714;28;20374;-66
2022/11/06 02:07:27;;;;;;;;;;;;;;;7.49;67.76;95738.81;5034158;28;20053;-66
2022/11/06 02:09:52;;;;;;;;;;;;;;;7.46;67.69;95747.28;5034836;28;20433;-66
2022/11/06 02:12:31;;;;;;;;;;;;;;;7.44;67.63;95733.53;5034110;28;20493;-66
2022/11/06 02:14:59;;;;;;;;;;;;;;;7.40;67.57;95738.56;5034630;28;20010;-65
2022/11/06 02:17:33;;;;;;;;;;;;;;;7.36;67.62;95734.06;5034309;28;20014;-66
2022/11/06 02:20:06;;;;;;;;;;;;;;;7.30;67.81;95734.09;5033928;28;20014;-66
2022/11/06 02:22:50;;;;;;;;;;;;;;;7.32;67.94;95735.66;5033841;28;20113;-66
2022/11/06 02:25:27;;;;;;;;;;;;;;;7.28;67.77;95730.94;5032995;28;20496;-66
2022/11/06 02:28:02;;;;;;;;;;;;;;;7.26;68.36;95725.09;5035032;28;20486;-66
2022/11/06 02:30:29;;;;;;;;;;;;;;;7.25;67.89;95726.16;5034883;28;20014;-66
2022/11/06 02:32:56;;;;;;;;;;;;;;;7.23;68.03;95722.22;5033847;28;20068;-65
2022/11/06 02:35:38;;;;;;;;;;;;;;;7.19;67.69;95729.88;5033406;28;20017;-66
2022/11/06 02:38:06;;;;;;;;;;;;;;;7.16;68.31;95722.47;5035972;28;20092;-66
2022/11/06 02:40:33;;;;;;;;;;;;;;;7.12;67.80;95716.16;5033815;28;20532;-67
2022/11/06 02:43:01;;;;;;;;;;;;;;;7.09;68.16;95721.97;5034155;28;20005;-66
2022/11/06 02:45:28;;;;;;;;;;;;;;;7.06;67.87;95711.91;5029633;28;20018;-66
2022/11/06 02:47:54;;;;;;;;;;;;;;;7.03;68.14;95707.97;5030175;28;20025;-66
2022/11/06 02:50:23;;;;;;;;;;;;;;;6.99;67.88;95706.91;5031585;28;20548;-66
2022/11/06 02:52:54;;;;;;;;;;;;;;;6.96;67.34;95701.34;5031173;28;20017;-66
2022/11/06 02:55:27;;;;;;;;;;;;;;;6.90;67.40;95703.19;5030713;28;20489;-66
2022/11/06 02:57:55;;;;;;;;;;;;;;;6.87;67.98;95695.03;5032894;28;20510;-66
2022/11/06 03:00:22;;;;;;;;;;;;;;;6.87;67.40;95697.66;5030997;28;20010;-66
2022/11/06 03:02:47;;;;;;;;;;;;;;;6.86;67.61;95701.34;5032609;28;20105;-66
2022/11/06 03:05:17;;;;;;;;;;;;;;;6.87;67.30;95705.59;5013446;28;20526;-65
2022/11/06 03:07:46;;;;;;;;;;;;;;;6.86;67.27;95711.94;5021291;28;20021;-66
2022/11/06 03:10:11;;;;;;;;;;;;;;;6.81;67.33;95704.00;5030135;28;20018;-66
2022/11/06 03:12:41;;;;;;;;;;;;;;;6.79;67.92;95706.91;5032148;28;20029;-65
2022/11/06 03:15:09;;;;;;;;;;;;;;;6.76;67.95;95702.97;5029797;28;20010;-66
2022/11/06 03:17:49;;;;;;;;;;;;;;;6.72;67.46;95699.25;5031376;28;20053;-66
2022/11/06 03:20:24;;;;;;;;;;;;;;;6.71;67.92;95692.41;5028967;28;20014;-66
2022/11/06 03:22:54;;;;;;;;;;;;;;;6.68;67.99;95689.47;5032174;28;20006;-66
2022/11/06 03:25:21;;;;;;;;;;;;;;;6.68;67.58;95689.47;5028535;28;20049;-66
2022/11/06 03:28:05;;;;;;;;;;;;;;;6.68;67.45;95684.19;5031226;28;20056;-66
2022/11/06 03:30:33;;;;;;;;;;;;;;;6.66;67.84;95695.03;5029517;28;20014;-66
2022/11/06 03:33:09;;;;;;;;;;;;;;;6.67;67.84;95693.97;5032062;28;20010;-66
2022/11/06 03:36:01;;;;;;;;;;;;;;;6.67;68.06;95699.25;5028606;28;20018;-66
2022/11/06 03:38:29;;;;;;;;;;;;;;;6.67;68.16;95695.84;5026404;28;20014;-66
2022/11/06 03:40:58;;;;;;;;;;;;;;;6.65;67.37;95703.22;5029928;28;20374;-66
2022/11/06 03:43:26;;;;;;;;;;;;;;;6.56;68.02;95696.91;5031720;28;20480;-66
2022/11/06 03:45:51;;;;;;;;;;;;;;;6.54;67.36;95704.28;5027497;28;20054;-66
2022/11/06 03:48:40;;;;;;;;;;;;;;;6.54;67.97;95699.78;5030412;28;20057;-65
2022/11/06 03:51:32;;;;;;;;;;;;;;;6.53;67.72;95700.84;5017985;28;20018;-66
2022/11/06 03:54:00;;;;;;;;;;;;;;;6.51;68.28;95695.84;5027300;28;20018;-66
2022/11/06 03:56:46;;;;;;;;;;;;;;;6.49;67.23;95691.84;5029806;28;20053;-66
2022/11/06 03:59:12;;;;;;;;;;;;;;;6.46;67.73;95695.03;5027884;28;20064;-66
2022/11/06 04:01:41;;;;;;;;;;;;;;;6.43;67.29;95690.28;5029154;28;20022;-65
2022/11/06 04:04:16;;;;;;;;;;;;;;;6.43;67.92;95690.28;5029352;28;20010;-65
2022/11/06 04:06:45;;;;;;;;;;;;;;;6.40;67.88;95693.47;5030900;28;20005;-65
2022/11/06 04:14:46;;;;;;;;;;;;;;;6.36;67.29;95681.81;5030261;28;20370;-65
2022/11/06 04:17:12;;;;;;;;;;;;;;;6.34;67.83;95684.72;5029763;28;20021;-65
2022/11/06 04:19:43;;;;;;;;;;;;;;;6.31;68.00;95687.91;5028831;28;20028;-65
2022/11/06 04:22:19;;;;;;;;;;;;;;;6.30;67.38;95682.88;5030119;28;20017;-65
2022/11/06 04:27:43;;;;;;;;;;;;;;;6.23;68.07;95683.13;5012360;28;20116;-65
2022/11/06 04:30:10;;;;;;;;;;;;;;;6.24;67.94;95685.53;5028569;28;20501;-66
2022/11/06 04:32:54;;;;;;;;;;;;;;;6.27;68.33;95678.91;5029494;28;20528;-65
2022/11/06 04:35:30;;;;;;;;;;;;;;;6.25;67.47;95676.53;5027361;28;20351;-65
2022/11/06 04:38:11;;;;;;;;;;;;;;;6.24;67.47;95672.31;5030509;28;20006;-65
2022/11/06 04:40:52;;;;;;;;;;;;;;;6.23;67.55;95667.25;5027642;28;20029;-66
2022/11/06 04:43:37;;;;;;;;;;;;;;;6.19;67.83;95660.91;5028017;28;20044;-65
2022/11/06 04:46:04;;;;;;;;;;;;;;;6.15;68.36;95670.44;5028458;28;20060;-65
2022/11/06 04:48:29;;;;;;;;;;;;;;;6.16;68.00;95666.75;5027791;28;20010;-65
2022/11/06 04:50:58;;;;;;;;;;;;;;;6.14;68.26;95666.19;5030355;28;20024;-65
2022/11/06 04:53:24;;;;;;;;;;;;;;;6.18;67.90;95660.13;5029183;28;20060;-65
2022/11/06 04:55:51;;;;;;;;;;;;;;;6.21;67.84;95664.91;5029073;28;20010;-65
2022/11/06 04:58:16;;;;;;;;;;;;;;;6.20;67.76;95665.16;5027824;28;20032;-65
2022/11/06 05:00:44;;;;;;;;;;;;;;;6.15;67.24;95660.66;5029060;28;20367;-65
2022/11/06 05:03:10;;;;;;;;;;;;;;;6.14;67.33;95663.56;5026815;28;19998;-65
2022/11/06 05:05:35;;;;;;;;;;;;;;;6.11;67.25;95662.25;5029058;28;20673;-65
2022/11/06 05:08:01;;;;;;;;;;;;;;;6.08;67.30;95665.41;5027601;28;20101;-65
2022/11/06 05:10:26;;;;;;;;;;;;;;;6.07;67.85;95665.66;5028776;28;20378;-65
2022/11/06 05:12:51;;;;;;;;;;;;;;;6.07;67.86;95657.75;5029158;28;20012;-65
2022/11/06 05:15:16;;;;;;;;;;;;;;;6.06;67.58;95654.31;5026517;28;20104;-65
2022/11/06 05:17:42;;;;;;;;;;;;;;;6.06;67.21;95651.66;5029036;28;20013;-66
2022/11/06 05:20:07;;;;;;;;;;;;;;;6.05;67.80;95652.72;5027972;28;20056;-65
2022/11/06 05:25:16;;;;;;;;;;;;;;;6.02;67.02;95637.41;5009756;28;20061;-65
2022/11/06 05:27:41;;;;;;;;;;;;;;;6.00;67.62;95636.88;5032263;28;20406;-65
2022/11/06 05:30:07;;;;;;;;;;;;;;;5.99;67.55;95628.16;5027559;28;20041;-66
2022/11/06 05:32:32;;;;;;;;;;;;;;;5.96;67.01;95628.69;5025240;28;20014;-65
2022/11/06 05:34:57;;;;;;;;;;;;;;;5.95;67.52;95628.94;5009755;28;20113;-65
2022/11/06 05:37:23;;;;;;;;;;;;;;;5.95;67.76;95631.59;5028695;28;20382;-65
2022/11/06 05:39:48;;;;;;;;;;;;;;;5.95;67.24;95639.50;5027593;28;20376;-65
2022/11/06 05:42:13;;;;;;;;;;;;;;;5.92;67.35;95642.66;5027590;28;20553;-65
2022/11/06 05:44:39;;;;;;;;;;;;;;;5.91;67.64;95643.69;5029427;28;20685;-65
2022/11/06 05:47:04;;;;;;;;;;;;;;;5.89;67.50;95635.25;5026828;28;20374;-65
2022/11/06 05:49:29;;;;;;;;;;;;;;;5.89;67.01;95635.25;5028697;28;20017;-65
2022/11/06 05:51:54;;;;;;;;;;;;;;;5.88;67.54;95634.44;5029562;28;20119;-63
2022/11/06 05:54:20;;;;;;;;;;;;;;;5.85;67.01;95623.63;5027552;28;20101;-66
2022/11/06 05:56:45;;;;;;;;;;;;;;;5.86;67.07;95622.56;5029086;28;20006;-66
2022/11/06 05:59:10;;;;;;;;;;;;;;;5.88;67.31;95620.44;5027642;28;20386;-66
2022/11/06 06:01:36;;;;;;;;;;;;;;;5.90;67.84;95616.50;5027641;28;20498;-65
2022/11/06 06:04:01;;;;;;;;;;;;;;;5.95;67.31;95621.03;5027359;28;20014;-65
2022/11/06 06:06:26;;;;;;;;;;;;;;;5.98;68.11;95620.50;5028053;28;20440;-65
2022/11/06 06:08:51;;;;;;;;;;;;;;;5.99;68.15;95620.25;5028417;28;20108;-66
2022/11/06 06:11:17;;;;;;;;;;;;;;;6.03;67.86;95614.44;5027807;28;20018;-64
2022/11/06 06:13:42;;;;;;;;;;;;;;;6.07;67.73;95608.34;5028562;28;20029;-64
2022/11/06 06:16:07;;;;;;;;;;;;;;;6.11;68.54;95603.34;5025620;28;20021;-64
2022/11/06 06:18:32;;;;;;;;;;;;;;;6.18;67.74;95601.22;5029102;28;20466;-65
2022/11/06 06:20:58;;;;;;;;;;;;;;;6.24;67.72;95606.28;5033749;28;20063;-65
2022/11/06 06:23:23;;;;;;;;;;;;;;;6.30;68.62;95603.63;5022458;28;20049;-65
2022/11/06 06:25:48;;;;;;;;;;;;;;;6.37;68.10;95598.84;5031204;28;20065;-64
2022/11/06 06:28:13;;;;;;;;;;;;;;;6.45;68.88;95593.03;5031554;28;20056;-65
2022/11/06 06:30:39;;;;;;;;;;;;;;;6.51;68.09;95589.34;5031222;28;20014;-65
2022/11/06 06:33:05;;;;;;;;;;;;;;;6.59;68.10;95583.47;5031104;28;20010;-64
2022/11/06 06:35:30;;;;;;;;;;;;;;;6.64;67.75;95594.03;5031710;28;20482;-65
2022/11/06 06:37:55;;;;;;;;;;;;;;;6.69;67.71;95595.88;5032536;28;20056;-66
2022/11/06 06:40:21;;;;;;;;;;;;;;;6.72;67.50;95588.22;5033521;28;20006;-65
2022/11/06 06:42:47;;;;;;;;;;;;;;;6.78;67.73;95589.78;5030258;28;20061;-65
2022/11/06 06:45:12;;;;;;;;;;;;;;;6.87;68.20;95587.41;5031663;28;20057;-64
2022/11/06 06:47:38;;;;;;;;;;;;;;;6.93;67.60;95586.31;5031445;28;20105;-65
2022/11/06 06:50:03;;;;;;;;;;;;;;;6.99;68.21;95584.44;5033200;28;20025;-65
2022/11/06 06:52:28;;;;;;;;;;;;;;;7.06;68.25;95581.50;5031908;28;20018;-65
2022/11/06 06:54:53;;;;;;;;;;;;;;;7.09;67.89;95579.13;5031628;28;20014;-64
2022/11/06 06:57:18;;;;;;;;;;;;;;;7.14;67.77;95581.75;5030550;28;20541;-65
2022/11/06 06:59:44;;;;;;;;;;;;;;;7.22;67.45;95583.84;5030999;28;20056;-65
2022/11/06 07:02:09;;;;;;;;;;;;;;;7.27;67.89;95581.16;5030715;28;20379;-65
2022/11/06 07:04:34;;;;;;;;;;;;;;;7.33;67.45;95574.00;5030915;28;20032;-65
2022/11/06 07:06:59;;;;;;;;;;;;;;;7.36;67.33;95578.72;5030205;28;20151;-66
2022/11/06 07:09:28;;;;;;;;;;;;;;;7.41;67.33;95580.56;5030632;28;20071;-65
2022/11/06 07:11:53;;;;;;;;;;;;;;;7.43;67.73;95584.53;5029873;28;20362;-65
2022/11/06 07:14:18;;;;;;;;;;;;;;;7.54;67.41;95587.91;5031517;28;20021;-65
2022/11/06 07:16:44;;;;;;;;;;;;;;;7.60;67.31;95588.69;5029907;28;20018;-65
2022/11/06 07:19:09;;;;;;;;;;;;;;;7.69;66.99;95590.47;5031829;28;20084;-65
2022/11/06 07:21:34;;;;;;;;;;;;;;;7.73;66.93;95585.44;5030517;28;20033;-65
2022/11/06 07:23:59;;;;;;;;;;;;;;;7.85;67.50;95585.88;5031604;28;20068;-65
2022/11/06 07:26:24;;;;;;;;;;;;;;;8.12;66.96;95600.50;5030117;28;20014;-65
2022/11/06 07:28:50;;;;;;;;;;;;;;;8.24;67.80;95603.59;5030144;28;20068;-64
2022/11/06 07:31:15;;;;;;;;;;;;;;;8.73;67.27;95608.75;5029897;28;20021;-65
2022/11/06 07:33:40;;;;;;;;;;;;;;;9.08;66.28;95598.88;5031129;28;20014;-65
2022/11/06 07:36:07;;;;;;;;;;;;;;;9.40;65.93;95602.72;5030434;28;20014;-65
2022/11/06 07:38:33;;;;;;;;;;;;;;;9.61;64.90;95604.84;5029269;28;20402;-65
2022/11/06 07:41:03;;;;;;;;;;;;;;;9.80;63.92;95601.41;5030674;28;20006;-65
2022/11/06 07:43:28;;;;;;;;;;;;;;;10.02;63.67;95598.94;5029177;28;20010;-65
2022/11/06 07:45:56;;;;;;;;;;;;;;;10.24;63.03;95603.72;5029488;28;20375;-65
2022/11/06 07:48:22;;;;;;;;;;;;;;;10.36;62.85;95612.03;5029771;28;20064;-65
2022/11/06 07:50:47;;;;;;;;;;;;;;;10.59;61.96;95606.84;5028466;28;20022;-65
2022/11/06 07:53:12;;;;;;;;;;;;;;;10.54;62.24;95599.75;5027434;28;20014;-64
2022/11/06 07:55:37;;;;;;;;;;;;;;;10.55;62.51;95596.03;5030354;28;20010;-62
2022/11/06 07:58:02;;;;;;;;;;;;;;;10.74;62.30;95587.97;5029910;28;20010;-64
2022/11/06 08:00:28;;;;;;;;;;;;;;;11.13;60.95;95589.41;5027597;28;20110;-67
2022/11/06 08:02:53;;;;;;;;;;;;;;;11.39;60.43;95587.00;5019516;28;20017;-65
2022/11/06 08:05:18;;;;;;;;;;;;;;;11.50;58.42;95583.06;5031103;28;20064;-66
2022/11/06 08:07:43;;;;;;;;;;;;;;;11.32;58.62;95574.09;5029925;28;20104;-66
2022/11/06 08:10:09;;;;;;;;;;;;;;;11.01;59.20;95567.81;5030078;28;20442;-67
2022/11/06 08:12:34;;;;;;;;;;;;;;;10.85;59.92;95562.78;5029840;28;20010;-66
2022/11/06 08:14:59;;;;;;;;;;;;;;;10.67;60.72;95558.31;5028424;28;20593;-65
2022/11/06 08:17:26;;;;;;;;;;;;;;;10.55;60.39;95550.03;5028543;28;20013;-68
2022/11/06 08:19:51;;;;;;;;;;;;;;;10.48;61.04;95547.72;5029740;28;20016;-67
2022/11/06 08:22:17;;;;;;;;;;;;;;;10.43;61.29;95545.16;5028331;28;20014;-66
2022/11/06 08:24:43;;;;;;;;;;;;;;;10.27;62.35;95557.94;5029457;28;20060;-66
2022/11/06 08:27:08;;;;;;;;;;;;;;;10.27;62.15;95551.81;5021321;28;20053;-66
2022/11/06 08:29:33;;;;;;;;;;;;;;;10.23;62.58;95542.81;5028103;28;20502;-67
2022/11/06 08:31:58;;;;;;;;;;;;;;;10.23;62.43;95545.47;5029189;28;20449;-67
2022/11/06 08:34:23;;;;;;;;;;;;;;;10.20;62.87;95535.44;5028479;28;20486;-66
2022/11/06 08:36:52;;;;;;;;;;;;;;;10.16;63.03;95546.63;5020337;28;20015;-66
2022/11/06 08:39:18;;;;;;;;;;;;;;;10.18;62.47;95541.03;5035888;28;20014;-67
2022/11/06 08:41:44;;;;;;;;;;;;;;;10.18;63.37;95534.91;5030467;28;20120;-66
2022/11/06 08:44:09;;;;;;;;;;;;;;;10.02;63.25;95537.81;5020850;28;20010;-67
2022/11/06 08:46:34;;;;;;;;;;;;;;;10.18;63.56;95533.03;5028612;28;20018;-68
2022/11/06 08:49:02;;;;;;;;;;;;;;;10.24;63.06;95525.84;5027816;28;20054;-66
2022/11/06 08:51:28;;;;;;;;;;;;;;;10.27;63.10;95519.91;5027815;28;20014;-67
2022/11/06 08:53:53;;;;;;;;;;;;;;;10.45;62.23;95526.28;5020315;28;20429;-67
2022/11/06 08:56:18;;;;;;;;;;;;;;;10.49;62.79;95525.38;5010658;28;20051;-67
2022/11/06 08:58:43;;;;;;;;;;;;;;;10.51;62.19;95515.25;5027110;28;20420;-67
2022/11/06 09:01:08;;;;;;;;;;;;;;;10.60;61.99;95508.16;5027697;28;20480;-68
2022/11/06 09:03:34;;;;;;;;;;;;;;;10.53;62.73;95498.97;5028315;28;20014;-68
2022/11/06 09:05:59;;;;;;;;;;;;;;;10.69;62.73;95500.25;5028761;28;20727;-67
2022/11/06 09:08:24;;;;;;;;;;;;;;;10.84;62.11;95497.31;5028195;28;20013;-66
2022/11/06 09:10:49;;;;;;;;;;;;;;;10.74;62.30;95494.06;5030107;28;20040;-65
2022/11/06 09:13:15;;;;;;;;;;;;;;;10.96;62.76;95491.50;5029368;28;20010;-65
2022/11/06 09:15:40;;;;;;;;;;;;;;;11.11;62.29;95477.88;5026539;28;20014;-65
2022/11/06 09:18:06;;;;;;;;;;;;;;;11.14;62.17;95471.94;5029290;28;20064;-66
2022/11/06 09:20:31;;;;;;;;;;;;;;;11.33;61.31;95476.34;5027744;28;20406;-69
2022/11/06 09:23:02;;;;;;;;;;;;;;;11.14;61.35;95461.28;5029127;28;20014;-69
2022/11/06 09:25:28;;;;;;;;;;;;;;;11.43;61.09;95466.25;5029105;28;20010;-65
2022/11/06 09:27:53;;;;;;;;;;;;;;;11.35;60.41;95447.53;5029070;28;20548;-69
2022/11/06 09:30:20;;;;;;;;;;;;;;;11.33;59.79;95453.16;5026330;28;20010;-68
2022/11/06 09:32:46;;;;;;;;;;;;;;;11.22;59.86;95443.84;5027247;28;20009;-67
2022/11/06 09:35:11;;;;;;;;;;;;;;;11.41;59.89;95435.69;5024555;28;20014;-67
2022/11/06 09:37:36;;;;;;;;;;;;;;;11.71;59.83;95426.97;5026024;28;20015;-65
2022/11/06 09:40:02;;;;;;;;;;;;;;;11.84;59.40;95419.25;5018863;28;20014;-66
2022/11/06 09:42:33;;;;;;;;;;;;;;;11.72;59.02;95419.78;5028836;28;20065;-67
2022/11/06 09:45:14;;;;;;;;;;;;;;;11.76;58.28;95417.28;5017787;28;20021;-65
2022/11/06 09:47:46;;;;;;;;;;;;;;;11.71;59.62;95418.19;5026084;28;20014;-66
2022/11/06 09:50:16;;;;;;;;;;;;;;;12.05;58.49;95417.63;5028084;28;20014;-64
2022/11/06 09:52:44;;;;;;;;;;;;;;;12.30;58.68;95408.19;5028912;28;20487;-66
2022/11/06 09:55:13;;;;;;;;;;;;;;;12.40;58.23;95407.13;5028812;28;20132;-67
2022/11/06 09:57:43;;;;;;;;;;;;;;;12.41;57.93;95403.38;5032987;28;20068;-65
2022/11/06 10:00:11;;;;;;;;;;;;;;;12.39;58.53;95401.03;5034154;28;20462;-66
2022/11/06 10:02:50;;;;;;;;;;;;;;;12.33;57.69;95399.56;5031715;28;20555;-67
2022/11/06 10:05:18;;;;;;;;;;;;;;;12.06;56.95;95408.53;5033030;28;20014;-66
2022/11/06 10:07:44;;;;;;;;;;;;;;;12.44;57.04;95392.88;5034214;28;20014;-66
2022/11/06 10:10:17;;;;;;;;;;;;;;;12.49;56.18;95386.63;5034050;28;20017;-66
2022/11/06 10:12:57;;;;;;;;;;;;;;;12.55;56.16;95381.91;5032372;28;20021;-66
2022/11/06 10:15:29;;;;;;;;;;;;;;;12.69;56.43;95372.69;5030029;28;20458;-67
2022/11/06 10:18:13;;;;;;;;;;;;;;;12.73;56.38;95362.94;5031993;28;20010;-65
2022/11/06 10:20:46;;;;;;;;;;;;;;;12.90;57.02;95351.53;5029036;28;20014;-67
2022/11/06 10:23:26;;;;;;;;;;;;;;;12.65;57.60;95349.59;5013863;28;20006;-66
2022/11/06 10:25:58;;;;;;;;;;;;;;;12.94;57.28;95347.09;5022831;28;20010;-65
2022/11/06 10:28:32;;;;;;;;;;;;;;;12.46;58.00;95334.66;5031656;28;20014;-65
2022/11/06 10:31:06;;;;;;;;;;;;;;;12.80;57.56;95329.69;5017675;28;20018;-65
2022/11/06 10:33:51;;;;;;;;;;;;;;;12.82;57.59;95338.16;5032360;28;20425;-65
2022/11/06 10:36:20;;;;;;;;;;;;;;;12.91;56.87;95337.06;5032983;28;20048;-71
2022/11/06 10:38:47;;;;;;;;;;;;;;;12.91;56.43;95331.72;5032273;28;20016;-65
2022/11/06 10:41:18;;;;;;;;;;;;;;;12.76;56.23;95318.84;5030779;28;20013;-64
2022/11/06 10:43:51;;;;;;;;;;;;;;;12.83;56.93;95324.50;5032683;28;20021;-65
2022/11/06 10:46:33;;;;;;;;;;;;;;;12.65;56.12;95306.91;5032799;28;20170;-65
2022/11/06 10:48:59;;;;;;;;;;;;;;;12.63;55.59;95309.09;5028753;28;20014;-66
2022/11/06 10:51:43;;;;;;;;;;;;;;;12.61;56.03;95300.63;5013494;28;20014;-65
2022/11/06 10:54:08;;;;;;;;;;;;;;;12.65;55.54;95297.00;5022636;28;20018;-65
2022/11/06 10:56:44;;;;;;;;;;;;;;;12.66;54.37;95289.78;5032005;28;20036;-66
2022/11/06 10:59:09;;;;;;;;;;;;;;;13.00;54.38;95289.81;5032006;28;20442;-66
2022/11/06 11:01:36;;;;;;;;;;;;;;;13.03;54.37;95283.03;5030206;28;20069;-66
2022/11/06 11:04:01;;;;;;;;;;;;;;;13.19;54.02;95281.44;5030838;28;20100;-67
2022/11/06 11:06:26;;;;;;;;;;;;;;;13.31;53.90;95267.50;5021382;28;20113;-66
2022/11/06 11:08:51;;;;;;;;;;;;;;;13.14;54.05;95257.56;5018173;28;20050;-66
2022/11/06 11:11:24;;;;;;;;;;;;;;;13.25;53.55;95247.38;5011544;28;20475;-66
2022/11/06 11:13:49;;;;;;;;;;;;;;;12.95;54.13;95243.78;5017760;28;20018;-65
2022/11/06 11:16:28;;;;;;;;;;;;;;;12.94;53.82;95245.66;5032178;28;20025;-64
2022/11/06 11:18:57;;;;;;;;;;;;;;;13.19;53.34;95238.72;5025795;28;20018;-66
2022/11/06 11:21:22;;;;;;;;;;;;;;;13.31;56.01;95231.94;5031477;28;20463;-65
2022/11/06 11:23:59;;;;;;;;;;;;;;;13.60;52.44;95218.66;5030049;28;20021;-65
2022/11/06 11:26:29;;;;;;;;;;;;;;;13.59;51.81;95224.31;5017733;28;20010;-69
2022/11/06 11:28:56;;;;;;;;;;;;;;;13.70;51.20;95220.19;5017207;28;20049;-67
2022/11/06 11:31:32;;;;;;;;;;;;;;;13.93;50.57;95221.50;5030753;28;20445;-67
2022/11/06 11:34:02;;;;;;;;;;;;;;;14.13;49.13;95214.63;5020175;28;20486;-67
2022/11/06 11:36:48;;;;;;;;;;;;;;;14.20;50.50;95217.56;5012013;28;20006;-67
2022/11/06 11:39:15;;;;;;;;;;;;;;;14.42;48.10;95213.78;5012037;28;20116;-66
2022/11/06 11:41:40;;;;;;;;;;;;;;;14.45;49.01;95213.16;5014657;28;20057;-66
2022/11/06 11:44:13;;;;;;;;;;;;;;;14.54;48.70;95205.88;5030528;28;20435;-65
2022/11/06 11:46:46;;;;;;;;;;;;;;;14.62;49.65;95212.25;5031419;28;20005;-65
2022/11/06 11:49:29;;;;;;;;;;;;;;;13.85;50.39;95158.16;5033127;28;20172;-65
2022/11/06 11:51:56;;;;;;;;;;;;;;;14.39;49.85;95201.06;5012010;28;20042;-63
2022/11/06 11:54:25;;;;;;;;;;;;;;;14.15;48.95;95195.56;5011011;28;20053;-62
2022/11/06 11:56:50;;;;;;;;;;;;;;;14.32;48.94;95192.78;5037476;28;20112;-63
2022/11/06 11:59:20;;;;;;;;;;;;;;;14.27;48.70;95188.41;5030569;28;20097;-63
2022/11/06 12:01:47;;;;;;;;;;;;;;;14.28;48.91;95181.19;5031624;28;20010;-63
2022/11/06 12:04:39;;;;;;;;;;;;;;;14.02;49.46;95182.13;5029725;28;20097;-63
2022/11/06 12:07:05;;;;;;;;;;;;;;;13.29;50.66;95180.75;5027071;28;20018;-65
2022/11/06 12:09:32;;;;;;;;;;;;;;;13.78;50.29;95173.94;5030800;28;20014;-61
2022/11/06 12:11:58;;;;;;;;;;;;;;;14.17;49.55;95171.94;5031449;28;20482;-64
2022/11/06 12:14:26;;;;;;;;;;;;;;;14.38;49.44;95162.03;5029220;28;20014;-64
2022/11/06 12:16:54;;;;;;;;;;;;;;;14.38;49.48;95172.72;5027466;28;20151;-64
2022/11/06 12:19:20;;;;;;;;;;;;;;;14.45;49.23;95173.00;5030492;28;20104;-64
2022/11/06 12:21:49;;;;;;;;;;;;;;;14.34;48.73;95171.84;5030244;28;20017;-64
2022/11/06 12:24:17;;;;;;;;;;;;;;;14.42;47.98;95167.50;5029904;28;20386;-63
2022/11/06 12:26:55;;;;;;;;;;;;;;;14.40;48.29;95161.72;5029890;28;20060;-64
2022/11/06 12:29:43;;;;;;;;;;;;;;;14.46;48.14;95166.53;5029058;28;20014;-64
2022/11/06 12:32:20;;;;;;;;;;;;;;;14.71;48.43;95167.47;5030937;28;20014;-64
2022/11/06 12:34:48;;;;;;;;;;;;;;;14.44;48.24;95163.41;5030025;28;20466;-65
2022/11/06 12:37:13;;;;;;;;;;;;;;;14.70;48.16;95157.88;5029357;28;20017;-65
2022/11/06 12:39:41;;;;;;;;;;;;;;;14.80;47.99;95162.03;5029723;28;20018;-67
2022/11/06 12:42:10;;;;;;;;;;;;;;;15.02;47.94;95152.81;5029966;28;20064;-64
2022/11/06 12:44:35;;;;;;;;;;;;;;;15.09;48.28;95145.78;5020657;28;20018;-66
2022/11/06 12:47:00;;;;;;;;;;;;;;;14.85;49.01;95156.47;5030369;28;20006;-66
2022/11/06 12:49:46;;;;;;;;;;;;;;;14.93;49.28;95166.28;5028562;28;20644;-65
2022/11/06 12:52:20;;;;;;;;;;;;;;;14.94;49.33;95167.84;5029201;28;20084;-65
2022/11/06 12:55:03;;;;;;;;;;;;;;;14.76;50.14;95169.94;5027739;28;20084;-66
2022/11/06 12:57:28;;;;;;;;;;;;;;;14.99;49.15;95169.53;5025815;28;20010;-65
2022/11/06 13:00:00;;;;;;;;;;;;;;;15.03;48.30;95165.09;5013527;28;20021;-64
2022/11/06 13:02:33;;;;;;;;;;;;;;;15.05;48.78;95166.34;5011022;28;20013;-65
2022/11/06 13:05:16;;;;;;;;;;;;;;;15.06;50.62;95170.59;5029531;28;20021;-70
2022/11/06 13:07:44;;;;;;;;;;;;;;;14.94;48.89;95167.84;5030240;28;20013;-65
2022/11/06 13:10:29;;;;;;;;;;;;;;;15.02;48.44;95172.34;5029226;28;20021;-65
2022/11/06 13:12:54;;;;;;;;;;;;;;;15.06;48.61;95154.50;5029456;28;20009;-64